sensor_id;sensor_type;location;lat;lon;timestamp;P1;durP1;ratioP1;P2;durP2;ratioP2
28130;SDS011;15418;42.634;23.374;2022-07-29T00:01:16;13.18;;;8.40;;
28130;SDS011;15418;42.634;23.374;2022-07-29T00:03:42;13.00;;;8.40;;
28130;SDS011;15418;42.634;23.374;2022-07-29T00:06:07;11.98;;;8.80;;
28130;SDS011;15418;42.634;23.374;2022-07-29T00:08:33;12.60;;;9.18;;
28130;SDS011;15418;42.634;23.374;2022-07-29T00:10:58;12.27;;;9.15;;
28130;SDS011;15418;42.634;23.374;2022-07-29T00:13:23;15.90;;;9.43;;
28130;SDS011;15418;42.634;23.374;2022-07-29T00:15:49;12.10;;;10.02;;
28130;SDS011;15418;42.634;23.374;2022-07-29T00:18:14;11.13;;;9.43;;
28130;SDS011;15418;42.634;23.374;2022-07-29T00:20:40;10.63;;;9.35;;
28130;SDS011;15418;42.634;23.374;2022-07-29T00:23:05;17.25;;;10.55;;
28130;SDS011;15418;42.634;23.374;2022-07-29T00:25:30;13.10;;;10.00;;
28130;SDS011;15418;42.634;23.374;2022-07-29T00:27:56;12.27;;;10.10;;
28130;SDS011;15418;42.634;23.374;2022-07-29T00:30:22;10.57;;;9.30;;
28130;SDS011;15418;42.634;23.374;2022-07-29T00:32:47;12.15;;;9.07;;
28130;SDS011;15418;42.634;23.374;2022-07-29T00:35:12;12.40;;;10.40;;
28130;SDS011;15418;42.634;23.374;2022-07-29T00:37:56;20.65;;;10.52;;
28130;SDS011;15418;42.634;23.374;2022-07-29T00:40:22;13.05;;;9.90;;
28130;SDS011;15418;42.634;23.374;2022-07-29T00:42:48;14.88;;;10.30;;
28130;SDS011;15418;42.634;23.374;2022-07-29T00:45:16;12.65;;;10.05;;
28130;SDS011;15418;42.634;23.374;2022-07-29T00:47:42;13.38;;;10.20;;
28130;SDS011;15418;42.634;23.374;2022-07-29T00:50:08;12.52;;;10.43;;
28130;SDS011;15418;42.634;23.374;2022-07-29T00:52:35;11.20;;;9.63;;
28130;SDS011;15418;42.634;23.374;2022-07-29T00:55:02;13.10;;;10.18;;
28130;SDS011;15418;42.634;23.374;2022-07-29T00:57:29;15.82;;;10.63;;
28130;SDS011;15418;42.634;23.374;2022-07-29T00:59:54;13.15;;;10.65;;
28130;SDS011;15418;42.634;23.374;2022-07-29T01:02:20;13.95;;;9.38;;
28130;SDS011;15418;42.634;23.374;2022-07-29T01:04:46;12.40;;;10.38;;
28130;SDS011;15418;42.634;23.374;2022-07-29T01:07:12;12.68;;;9.07;;
28130;SDS011;15418;42.634;23.374;2022-07-29T01:09:37;17.73;;;9.85;;
28130;SDS011;15418;42.634;23.374;2022-07-29T01:12:04;13.55;;;9.52;;
28130;SDS011;15418;42.634;23.374;2022-07-29T01:14:30;16.52;;;10.52;;
28130;SDS011;15418;42.634;23.374;2022-07-29T01:17:00;16.95;;;10.68;;
28130;SDS011;15418;42.634;23.374;2022-07-29T01:22:25;18.25;;;10.52;;
28130;SDS011;15418;42.634;23.374;2022-07-29T01:25:17;17.42;;;10.95;;
28130;SDS011;15418;42.634;23.374;2022-07-29T01:27:59;16.70;;;10.17;;
28130;SDS011;15418;42.634;23.374;2022-07-29T01:30:33;16.83;;;10.43;;
28130;SDS011;15418;42.634;23.374;2022-07-29T01:33:06;16.05;;;10.95;;
28130;SDS011;15418;42.634;23.374;2022-07-29T01:35:36;14.70;;;10.43;;
28130;SDS011;15418;42.634;23.374;2022-07-29T01:38:12;40.97;;;11.57;;
28130;SDS011;15418;42.634;23.374;2022-07-29T01:40:46;27.33;;;10.43;;
28130;SDS011;15418;42.634;23.374;2022-07-29T01:43:17;17.63;;;10.10;;
28130;SDS011;15418;42.634;23.374;2022-07-29T01:46:19;17.65;;;10.40;;
28130;SDS011;15418;42.634;23.374;2022-07-29T01:48:43;16.55;;;10.85;;
28130;SDS011;15418;42.634;23.374;2022-07-29T01:56:17;14.35;;;10.82;;
28130;SDS011;15418;42.634;23.374;2022-07-29T01:58:44;15.35;;;11.02;;
28130;SDS011;15418;42.634;23.374;2022-07-29T02:01:13;15.30;;;10.95;;
28130;SDS011;15418;42.634;23.374;2022-07-29T02:03:41;15.20;;;10.48;;
28130;SDS011;15418;42.634;23.374;2022-07-29T02:06:09;18.35;;;11.15;;
28130;SDS011;15418;42.634;23.374;2022-07-29T02:08:37;17.50;;;10.88;;
28130;SDS011;15418;42.634;23.374;2022-07-29T02:11:04;16.33;;;10.32;;
28130;SDS011;15418;42.634;23.374;2022-07-29T02:13:31;15.65;;;10.63;;
28130;SDS011;15418;42.634;23.374;2022-07-29T02:15:59;16.20;;;10.93;;
28130;SDS011;15418;42.634;23.374;2022-07-29T02:18:26;17.45;;;10.82;;
28130;SDS011;15418;42.634;23.374;2022-07-29T02:20:55;15.77;;;10.95;;
28130;SDS011;15418;42.634;23.374;2022-07-29T02:23:23;19.13;;;11.70;;
28130;SDS011;15418;42.634;23.374;2022-07-29T02:25:51;19.73;;;11.32;;
28130;SDS011;15418;42.634;23.374;2022-07-29T02:28:18;16.20;;;10.70;;
28130;SDS011;15418;42.634;23.374;2022-07-29T02:30:45;14.75;;;11.00;;
28130;SDS011;15418;42.634;23.374;2022-07-29T02:33:13;21.05;;;10.85;;
28130;SDS011;15418;42.634;23.374;2022-07-29T02:35:40;13.13;;;9.88;;
28130;SDS011;15418;42.634;23.374;2022-07-29T02:38:08;17.23;;;9.73;;
28130;SDS011;15418;42.634;23.374;2022-07-29T02:40:55;16.58;;;10.40;;
28130;SDS011;15418;42.634;23.374;2022-07-29T02:43:23;13.57;;;9.48;;
28130;SDS011;15418;42.634;23.374;2022-07-29T02:45:51;14.57;;;9.15;;
28130;SDS011;15418;42.634;23.374;2022-07-29T02:48:21;14.25;;;9.10;;
28130;SDS011;15418;42.634;23.374;2022-07-29T02:50:55;12.68;;;8.93;;
28130;SDS011;15418;42.634;23.374;2022-07-29T02:53:29;13.98;;;7.70;;
28130;SDS011;15418;42.634;23.374;2022-07-29T02:56:00;12.27;;;8.70;;
28130;SDS011;15418;42.634;23.374;2022-07-29T02:58:34;8.90;;;7.43;;
28130;SDS011;15418;42.634;23.374;2022-07-29T03:01:11;12.02;;;6.88;;
28130;SDS011;15418;42.634;23.374;2022-07-29T03:03:40;12.45;;;7.45;;
28130;SDS011;15418;42.634;23.374;2022-07-29T03:06:10;10.75;;;7.60;;
28130;SDS011;15418;42.634;23.374;2022-07-29T03:08:38;13.27;;;7.57;;
28130;SDS011;15418;42.634;23.374;2022-07-29T03:11:04;13.23;;;9.48;;
28130;SDS011;15418;42.634;23.374;2022-07-29T03:13:30;19.52;;;9.18;;
28130;SDS011;15418;42.634;23.374;2022-07-29T03:15:57;16.30;;;9.30;;
28130;SDS011;15418;42.634;23.374;2022-07-29T03:18:23;12.85;;;10.35;;
28130;SDS011;15418;42.634;23.374;2022-07-29T03:20:49;15.25;;;9.93;;
28130;SDS011;15418;42.634;23.374;2022-07-29T03:23:21;17.25;;;9.93;;
28130;SDS011;15418;42.634;23.374;2022-07-29T03:25:49;17.05;;;10.30;;
28130;SDS011;15418;42.634;23.374;2022-07-29T03:28:14;17.08;;;10.80;;
28130;SDS011;15418;42.634;23.374;2022-07-29T03:30:40;15.18;;;9.90;;
28130;SDS011;15418;42.634;23.374;2022-07-29T03:33:05;13.45;;;9.93;;
28130;SDS011;15418;42.634;23.374;2022-07-29T03:35:31;19.08;;;10.90;;
28130;SDS011;15418;42.634;23.374;2022-07-29T03:37:57;15.85;;;9.90;;
28130;SDS011;15418;42.634;23.374;2022-07-29T03:40:25;20.33;;;10.93;;
28130;SDS011;15418;42.634;23.374;2022-07-29T03:42:56;14.40;;;9.82;;
28130;SDS011;15418;42.634;23.374;2022-07-29T03:45:24;19.52;;;10.57;;
28130;SDS011;15418;42.634;23.374;2022-07-29T03:47:52;13.38;;;10.30;;
28130;SDS011;15418;42.634;23.374;2022-07-29T03:50:20;18.95;;;10.45;;
28130;SDS011;15418;42.634;23.374;2022-07-29T03:52:47;13.63;;;9.77;;
28130;SDS011;15418;42.634;23.374;2022-07-29T03:55:13;20.63;;;9.73;;
28130;SDS011;15418;42.634;23.374;2022-07-29T03:57:39;18.63;;;10.02;;
28130;SDS011;15418;42.634;23.374;2022-07-29T04:00:06;17.45;;;9.60;;
28130;SDS011;15418;42.634;23.374;2022-07-29T04:02:32;14.63;;;10.52;;
28130;SDS011;15418;42.634;23.374;2022-07-29T04:04:59;12.98;;;9.43;;
28130;SDS011;15418;42.634;23.374;2022-07-29T04:07:24;15.27;;;8.98;;
28130;SDS011;15418;42.634;23.374;2022-07-29T04:09:50;17.42;;;9.50;;
28130;SDS011;15418;42.634;23.374;2022-07-29T04:12:15;14.65;;;8.77;;
28130;SDS011;15418;42.634;23.374;2022-07-29T04:14:41;14.25;;;9.43;;
28130;SDS011;15418;42.634;23.374;2022-07-29T04:17:06;21.35;;;12.75;;
28130;SDS011;15418;42.634;23.374;2022-07-29T04:19:32;16.85;;;9.80;;
28130;SDS011;15418;42.634;23.374;2022-07-29T04:21:58;13.38;;;9.68;;
28130;SDS011;15418;42.634;23.374;2022-07-29T04:24:24;13.15;;;9.07;;
28130;SDS011;15418;42.634;23.374;2022-07-29T04:26:50;20.52;;;9.40;;
28130;SDS011;15418;42.634;23.374;2022-07-29T04:29:16;18.30;;;9.77;;
28130;SDS011;15418;42.634;23.374;2022-07-29T04:31:41;11.85;;;8.82;;
28130;SDS011;15418;42.634;23.374;2022-07-29T04:34:07;19.08;;;9.57;;
28130;SDS011;15418;42.634;23.374;2022-07-29T04:36:34;12.52;;;9.25;;
28130;SDS011;15418;42.634;23.374;2022-07-29T04:38:59;19.30;;;8.88;;
28130;SDS011;15418;42.634;23.374;2022-07-29T04:41:26;20.50;;;10.10;;
28130;SDS011;15418;42.634;23.374;2022-07-29T04:43:52;29.27;;;19.77;;
28130;SDS011;15418;42.634;23.374;2022-07-29T04:46:17;14.25;;;8.30;;
28130;SDS011;15418;42.634;23.374;2022-07-29T04:48:44;13.15;;;7.90;;
28130;SDS011;15418;42.634;23.374;2022-07-29T04:51:10;12.85;;;7.68;;
28130;SDS011;15418;42.634;23.374;2022-07-29T04:53:35;19.40;;;7.70;;
28130;SDS011;15418;42.634;23.374;2022-07-29T04:56:01;14.18;;;8.25;;
28130;SDS011;15418;42.634;23.374;2022-07-29T04:58:27;13.05;;;7.75;;
28130;SDS011;15418;42.634;23.374;2022-07-29T05:00:52;16.60;;;9.45;;
28130;SDS011;15418;42.634;23.374;2022-07-29T05:03:18;11.88;;;8.27;;
28130;SDS011;15418;42.634;23.374;2022-07-29T05:05:43;10.27;;;7.15;;
28130;SDS011;15418;42.634;23.374;2022-07-29T05:08:09;15.35;;;8.63;;
28130;SDS011;15418;42.634;23.374;2022-07-29T05:10:34;16.73;;;7.80;;
28130;SDS011;15418;42.634;23.374;2022-07-29T05:13:03;15.93;;;7.55;;
28130;SDS011;15418;42.634;23.374;2022-07-29T05:15:30;11.90;;;9.30;;
28130;SDS011;15418;42.634;23.374;2022-07-29T05:17:56;12.93;;;8.27;;
28130;SDS011;15418;42.634;23.374;2022-07-29T05:20:21;17.83;;;8.57;;
28130;SDS011;15418;42.634;23.374;2022-07-29T05:22:51;11.75;;;8.70;;
28130;SDS011;15418;42.634;23.374;2022-07-29T05:25:17;13.00;;;8.10;;
28130;SDS011;15418;42.634;23.374;2022-07-29T05:27:42;11.85;;;8.43;;
28130;SDS011;15418;42.634;23.374;2022-07-29T05:30:08;16.42;;;8.77;;
28130;SDS011;15418;42.634;23.374;2022-07-29T05:32:34;21.63;;;8.70;;
28130;SDS011;15418;42.634;23.374;2022-07-29T05:34:59;17.00;;;8.50;;
28130;SDS011;15418;42.634;23.374;2022-07-29T05:37:25;12.43;;;8.63;;
28130;SDS011;15418;42.634;23.374;2022-07-29T05:39:50;15.07;;;8.98;;
28130;SDS011;15418;42.634;23.374;2022-07-29T05:42:16;50.85;;;9.77;;
28130;SDS011;15418;42.634;23.374;2022-07-29T05:44:41;53.88;;;10.32;;
28130;SDS011;15418;42.634;23.374;2022-07-29T05:47:09;88.22;;;11.80;;
28130;SDS011;15418;42.634;23.374;2022-07-29T05:49:35;96.63;;;12.55;;
28130;SDS011;15418;42.634;23.374;2022-07-29T05:52:00;48.63;;;10.70;;
28130;SDS011;15418;42.634;23.374;2022-07-29T05:54:26;17.15;;;10.23;;
28130;SDS011;15418;42.634;23.374;2022-07-29T05:56:51;17.90;;;9.48;;
28130;SDS011;15418;42.634;23.374;2022-07-29T05:59:17;16.33;;;8.57;;
28130;SDS011;15418;42.634;23.374;2022-07-29T06:01:42;20.60;;;8.48;;
28130;SDS011;15418;42.634;23.374;2022-07-29T06:04:07;45.47;;;10.35;;
28130;SDS011;15418;42.634;23.374;2022-07-29T06:06:33;13.70;;;9.35;;
28130;SDS011;15418;42.634;23.374;2022-07-29T06:09:00;20.90;;;10.02;;
28130;SDS011;15418;42.634;23.374;2022-07-29T06:11:26;22.50;;;9.75;;
28130;SDS011;15418;42.634;23.374;2022-07-29T06:13:51;19.42;;;9.40;;
28130;SDS011;15418;42.634;23.374;2022-07-29T06:16:18;39.85;;;11.63;;
28130;SDS011;15418;42.634;23.374;2022-07-29T06:18:43;27.42;;;9.40;;
28130;SDS011;15418;42.634;23.374;2022-07-29T06:21:09;15.32;;;8.05;;
28130;SDS011;15418;42.634;23.374;2022-07-29T06:23:36;28.48;;;8.30;;
28130;SDS011;15418;42.634;23.374;2022-07-29T06:26:02;23.52;;;7.47;;
28130;SDS011;15418;42.634;23.374;2022-07-29T06:28:28;16.50;;;8.13;;
28130;SDS011;15418;42.634;23.374;2022-07-29T06:30:53;12.60;;;7.85;;
28130;SDS011;15418;42.634;23.374;2022-07-29T06:33:19;13.00;;;7.50;;
28130;SDS011;15418;42.634;23.374;2022-07-29T06:35:44;16.55;;;7.95;;
28130;SDS011;15418;42.634;23.374;2022-07-29T06:38:12;26.83;;;8.70;;
28130;SDS011;15418;42.634;23.374;2022-07-29T06:40:42;17.27;;;8.95;;
28130;SDS011;15418;42.634;23.374;2022-07-29T06:43:34;11.48;;;7.10;;
28130;SDS011;15418;42.634;23.374;2022-07-29T06:46:06;30.40;;;10.48;;
28130;SDS011;15418;42.634;23.374;2022-07-29T06:48:34;15.30;;;8.18;;
28130;SDS011;15418;42.634;23.374;2022-07-29T06:51:01;22.20;;;10.20;;
28130;SDS011;15418;42.634;23.374;2022-07-29T06:53:27;31.98;;;15.57;;
28130;SDS011;15418;42.634;23.374;2022-07-29T06:55:53;18.65;;;8.18;;
28130;SDS011;15418;42.634;23.374;2022-07-29T06:58:19;11.27;;;6.57;;
28130;SDS011;15418;42.634;23.374;2022-07-29T07:00:45;11.80;;;6.10;;
28130;SDS011;15418;42.634;23.374;2022-07-29T07:03:11;12.65;;;5.00;;
28130;SDS011;15418;42.634;23.374;2022-07-29T07:05:37;9.30;;;5.28;;
28130;SDS011;15418;42.634;23.374;2022-07-29T07:08:03;11.82;;;7.55;;
28130;SDS011;15418;42.634;23.374;2022-07-29T07:10:28;12.68;;;7.15;;
28130;SDS011;15418;42.634;23.374;2022-07-29T07:12:54;13.98;;;6.45;;
28130;SDS011;15418;42.634;23.374;2022-07-29T07:15:19;13.32;;;5.82;;
28130;SDS011;15418;42.634;23.374;2022-07-29T07:17:47;12.18;;;5.68;;
28130;SDS011;15418;42.634;23.374;2022-07-29T07:20:14;15.40;;;5.35;;
28130;SDS011;15418;42.634;23.374;2022-07-29T07:22:40;33.05;;;6.30;;
28130;SDS011;15418;42.634;23.374;2022-07-29T07:25:06;7.35;;;4.07;;
28130;SDS011;15418;42.634;23.374;2022-07-29T07:27:32;9.38;;;5.60;;
28130;SDS011;15418;42.634;23.374;2022-07-29T07:29:57;9.65;;;5.05;;
28130;SDS011;15418;42.634;23.374;2022-07-29T07:32:23;9.80;;;5.97;;
28130;SDS011;15418;42.634;23.374;2022-07-29T07:34:48;10.13;;;5.95;;
28130;SDS011;15418;42.634;23.374;2022-07-29T07:37:14;10.02;;;4.53;;
28130;SDS011;15418;42.634;23.374;2022-07-29T07:39:42;10.30;;;4.93;;
28130;SDS011;15418;42.634;23.374;2022-07-29T07:42:07;18.50;;;5.20;;
28130;SDS011;15418;42.634;23.374;2022-07-29T07:44:33;10.25;;;4.72;;
28130;SDS011;15418;42.634;23.374;2022-07-29T07:46:58;7.93;;;4.20;;
28130;SDS011;15418;42.634;23.374;2022-07-29T07:49:24;11.48;;;4.10;;
28130;SDS011;15418;42.634;23.374;2022-07-29T07:51:49;11.80;;;4.65;;
28130;SDS011;15418;42.634;23.374;2022-07-29T07:54:15;10.75;;;4.10;;
28130;SDS011;15418;42.634;23.374;2022-07-29T07:56:40;8.77;;;4.47;;
28130;SDS011;15418;42.634;23.374;2022-07-29T07:59:06;17.95;;;5.50;;
28130;SDS011;15418;42.634;23.374;2022-07-29T08:01:31;16.63;;;8.43;;
28130;SDS011;15418;42.634;23.374;2022-07-29T08:03:57;6.03;;;4.43;;
28130;SDS011;15418;42.634;23.374;2022-07-29T08:06:22;9.48;;;5.78;;
28130;SDS011;15418;42.634;23.374;2022-07-29T08:08:50;7.53;;;4.05;;
28130;SDS011;15418;42.634;23.374;2022-07-29T08:11:15;6.55;;;4.70;;
28130;SDS011;15418;42.634;23.374;2022-07-29T08:13:41;8.35;;;3.90;;
28130;SDS011;15418;42.634;23.374;2022-07-29T08:16:08;8.10;;;4.45;;
28130;SDS011;15418;42.634;23.374;2022-07-29T08:18:37;7.50;;;3.95;;
28130;SDS011;15418;42.634;23.374;2022-07-29T08:21:04;4.03;;;3.05;;
28130;SDS011;15418;42.634;23.374;2022-07-29T08:23:30;42.95;;;5.47;;
28130;SDS011;15418;42.634;23.374;2022-07-29T08:26:03;4.03;;;3.07;;
28130;SDS011;15418;42.634;23.374;2022-07-29T08:28:30;10.45;;;3.50;;
28130;SDS011;15418;42.634;23.374;2022-07-29T08:30:55;35.72;;;4.63;;
28130;SDS011;15418;42.634;23.374;2022-07-29T08:33:21;40.20;;;4.95;;
28130;SDS011;15418;42.634;23.374;2022-07-29T08:35:46;16.08;;;3.80;;
28130;SDS011;15418;42.634;23.374;2022-07-29T08:38:12;46.63;;;6.03;;
28130;SDS011;15418;42.634;23.374;2022-07-29T08:40:37;24.85;;;5.28;;
28130;SDS011;15418;42.634;23.374;2022-07-29T08:43:07;6.30;;;3.60;;
28130;SDS011;15418;42.634;23.374;2022-07-29T08:45:41;6.53;;;3.60;;
28130;SDS011;15418;42.634;23.374;2022-07-29T08:48:14;10.27;;;4.57;;
28130;SDS011;15418;42.634;23.374;2022-07-29T08:50:45;7.85;;;3.42;;
28130;SDS011;15418;42.634;23.374;2022-07-29T08:53:16;9.98;;;3.22;;
28130;SDS011;15418;42.634;23.374;2022-07-29T08:55:42;9.40;;;3.15;;
28130;SDS011;15418;42.634;23.374;2022-07-29T08:58:10;14.73;;;3.80;;
28130;SDS011;15418;42.634;23.374;2022-07-29T09:00:37;17.40;;;3.83;;
28130;SDS011;15418;42.634;23.374;2022-07-29T09:03:18;4.80;;;2.78;;
28130;SDS011;15418;42.634;23.374;2022-07-29T09:05:45;8.93;;;4.25;;
28130;SDS011;15418;42.634;23.374;2022-07-29T09:08:15;9.35;;;4.05;;
28130;SDS011;15418;42.634;23.374;2022-07-29T09:10:42;11.90;;;4.00;;
28130;SDS011;15418;42.634;23.374;2022-07-29T09:13:08;4.53;;;3.20;;
28130;SDS011;15418;42.634;23.374;2022-07-29T09:15:33;4.60;;;3.35;;
28130;SDS011;15418;42.634;23.374;2022-07-29T09:17:59;7.10;;;4.55;;
28130;SDS011;15418;42.634;23.374;2022-07-29T09:20:25;9.55;;;3.33;;
28130;SDS011;15418;42.634;23.374;2022-07-29T09:23:11;6.78;;;3.88;;
28130;SDS011;15418;42.634;23.374;2022-07-29T09:25:38;8.65;;;4.35;;
28130;SDS011;15418;42.634;23.374;2022-07-29T09:28:06;5.50;;;3.97;;
28130;SDS011;15418;42.634;23.374;2022-07-29T09:30:35;15.10;;;5.55;;
28130;SDS011;15418;42.634;23.374;2022-07-29T09:33:22;13.63;;;5.80;;
28130;SDS011;15418;42.634;23.374;2022-07-29T09:35:58;16.88;;;5.35;;
28130;SDS011;15418;42.634;23.374;2022-07-29T09:38:28;10.18;;;5.38;;
28130;SDS011;15418;42.634;23.374;2022-07-29T09:40:57;12.88;;;4.82;;
28130;SDS011;15418;42.634;23.374;2022-07-29T09:43:23;14.13;;;4.22;;
28130;SDS011;15418;42.634;23.374;2022-07-29T09:45:49;6.88;;;4.18;;
28130;SDS011;15418;42.634;23.374;2022-07-29T09:48:18;13.00;;;5.07;;
28130;SDS011;15418;42.634;23.374;2022-07-29T09:50:46;14.18;;;6.72;;
28130;SDS011;15418;42.634;23.374;2022-07-29T09:55:59;7.35;;;4.45;;
28130;SDS011;15418;42.634;23.374;2022-07-29T09:58:25;11.07;;;5.53;;
28130;SDS011;15418;42.634;23.374;2022-07-29T10:00:52;10.43;;;4.70;;
28130;SDS011;15418;42.634;23.374;2022-07-29T10:03:19;10.73;;;5.10;;
28130;SDS011;15418;42.634;23.374;2022-07-29T10:05:46;5.00;;;4.50;;
28130;SDS011;15418;42.634;23.374;2022-07-29T10:08:28;13.20;;;5.20;;
28130;SDS011;15418;42.634;23.374;2022-07-29T10:11:03;19.45;;;5.18;;
28130;SDS011;15418;42.634;23.374;2022-07-29T10:13:34;12.60;;;4.72;;
28130;SDS011;15418;42.634;23.374;2022-07-29T10:16:00;6.53;;;5.20;;
28130;SDS011;15418;42.634;23.374;2022-07-29T10:18:25;10.85;;;5.10;;
28130;SDS011;15418;42.634;23.374;2022-07-29T10:20:51;5.13;;;4.32;;
28130;SDS011;15418;42.634;23.374;2022-07-29T10:23:17;8.55;;;4.97;;
28130;SDS011;15418;42.634;23.374;2022-07-29T10:25:45;10.93;;;5.43;;
28130;SDS011;15418;42.634;23.374;2022-07-29T10:28:10;10.32;;;5.40;;
28130;SDS011;15418;42.634;23.374;2022-07-29T10:30:36;7.15;;;4.40;;
28130;SDS011;15418;42.634;23.374;2022-07-29T10:41:17;10.40;;;4.88;;
28130;SDS011;15418;42.634;23.374;2022-07-29T10:44:03;6.68;;;4.55;;
28130;SDS011;15418;42.634;23.374;2022-07-29T10:46:35;7.63;;;4.25;;
28130;SDS011;15418;42.634;23.374;2022-07-29T10:52:01;6.72;;;4.47;;
28130;SDS011;15418;42.634;23.374;2022-07-29T10:59:41;16.27;;;5.90;;
28130;SDS011;15418;42.634;23.374;2022-07-29T11:05:11;19.23;;;6.15;;
28130;SDS011;15418;42.634;23.374;2022-07-29T11:07:38;19.88;;;5.88;;
28130;SDS011;15418;42.634;23.374;2022-07-29T11:10:24;5.10;;;3.80;;
28130;SDS011;15418;42.634;23.374;2022-07-29T11:12:50;11.02;;;5.32;;
28130;SDS011;15418;42.634;23.374;2022-07-29T11:15:18;10.55;;;4.88;;
28130;SDS011;15418;42.634;23.374;2022-07-29T11:20:30;14.80;;;4.55;;
28130;SDS011;15418;42.634;23.374;2022-07-29T11:22:58;15.43;;;5.88;;
28130;SDS011;15418;42.634;23.374;2022-07-29T11:25:23;10.13;;;4.40;;
28130;SDS011;15418;42.634;23.374;2022-07-29T11:27:49;6.85;;;4.70;;
28130;SDS011;15418;42.634;23.374;2022-07-29T11:30:17;10.27;;;5.65;;
28130;SDS011;15418;42.634;23.374;2022-07-29T11:32:43;12.27;;;4.50;;
28130;SDS011;15418;42.634;23.374;2022-07-29T11:35:16;8.52;;;5.18;;
28130;SDS011;15418;42.634;23.374;2022-07-29T11:38:30;6.80;;;4.30;;
28130;SDS011;15418;42.634;23.374;2022-07-29T11:43:55;9.82;;;4.18;;
28130;SDS011;15418;42.634;23.374;2022-07-29T11:46:43;10.65;;;4.20;;
28130;SDS011;15418;42.634;23.374;2022-07-29T11:49:21;5.50;;;4.05;;
28130;SDS011;15418;42.634;23.374;2022-07-29T11:51:51;6.93;;;4.20;;
28130;SDS011;15418;42.634;23.374;2022-07-29T11:54:30;11.10;;;5.20;;
28130;SDS011;15418;42.634;23.374;2022-07-29T11:56:58;4.18;;;3.75;;
28130;SDS011;15418;42.634;23.374;2022-07-29T11:59:27;5.63;;;4.57;;
28130;SDS011;15418;42.634;23.374;2022-07-29T12:01:59;6.63;;;4.72;;
28130;SDS011;15418;42.634;23.374;2022-07-29T12:04:28;25.20;;;5.65;;
28130;SDS011;15418;42.634;23.374;2022-07-29T12:06:53;11.80;;;5.00;;
28130;SDS011;15418;42.634;23.374;2022-07-29T12:09:19;7.78;;;4.50;;
28130;SDS011;15418;42.634;23.374;2022-07-29T12:11:46;10.68;;;5.22;;
28130;SDS011;15418;42.634;23.374;2022-07-29T12:14:28;10.00;;;4.00;;
28130;SDS011;15418;42.634;23.374;2022-07-29T12:16:55;14.95;;;5.30;;
28130;SDS011;15418;42.634;23.374;2022-07-29T12:19:29;10.98;;;5.28;;
28130;SDS011;15418;42.634;23.374;2022-07-29T12:22:10;7.35;;;4.57;;
28130;SDS011;15418;42.634;23.374;2022-07-29T12:24:49;7.40;;;4.65;;
28130;SDS011;15418;42.634;23.374;2022-07-29T12:27:23;13.70;;;5.15;;
28130;SDS011;15418;42.634;23.374;2022-07-29T12:30:21;11.05;;;6.07;;
28130;SDS011;15418;42.634;23.374;2022-07-29T12:32:47;8.95;;;5.07;;
28130;SDS011;15418;42.634;23.374;2022-07-29T12:38:49;6.13;;;5.03;;
28130;SDS011;15418;42.634;23.374;2022-07-29T12:41:18;79.43;;;8.52;;
28130;SDS011;15418;42.634;23.374;2022-07-29T12:43:53;8.73;;;5.60;;
28130;SDS011;15418;42.634;23.374;2022-07-29T12:46:22;13.35;;;5.80;;
28130;SDS011;15418;42.634;23.374;2022-07-29T12:51:46;7.65;;;5.10;;
28130;SDS011;15418;42.634;23.374;2022-07-29T12:54:13;9.85;;;5.20;;
28130;SDS011;15418;42.634;23.374;2022-07-29T12:56:40;8.48;;;4.53;;
28130;SDS011;15418;42.634;23.374;2022-07-29T12:59:11;10.00;;;5.60;;
28130;SDS011;15418;42.634;23.374;2022-07-29T13:01:37;11.80;;;5.10;;
28130;SDS011;15418;42.634;23.374;2022-07-29T13:04:03;7.30;;;5.15;;
28130;SDS011;15418;42.634;23.374;2022-07-29T13:06:41;32.92;;;26.85;;
28130;SDS011;15418;42.634;23.374;2022-07-29T13:09:14;6.90;;;5.32;;
28130;SDS011;15418;42.634;23.374;2022-07-29T13:11:43;8.88;;;5.20;;
28130;SDS011;15418;42.634;23.374;2022-07-29T13:14:10;12.80;;;5.47;;
28130;SDS011;15418;42.634;23.374;2022-07-29T13:16:59;7.38;;;5.40;;
28130;SDS011;15418;42.634;23.374;2022-07-29T13:20:07;6.35;;;4.78;;
28130;SDS011;15418;42.634;23.374;2022-07-29T13:22:37;9.90;;;4.68;;
28130;SDS011;15418;42.634;23.374;2022-07-29T13:25:03;9.57;;;4.82;;
28130;SDS011;15418;42.634;23.374;2022-07-29T13:27:32;5.75;;;4.78;;
28130;SDS011;15418;42.634;23.374;2022-07-29T13:30:02;7.53;;;4.85;;
28130;SDS011;15418;42.634;23.374;2022-07-29T13:32:30;7.78;;;4.78;;
28130;SDS011;15418;42.634;23.374;2022-07-29T13:34:56;6.82;;;4.63;;
28130;SDS011;15418;42.634;23.374;2022-07-29T13:37:22;12.43;;;5.30;;
28130;SDS011;15418;42.634;23.374;2022-07-29T13:39:48;12.02;;;5.03;;
28130;SDS011;15418;42.634;23.374;2022-07-29T13:42:13;7.75;;;5.40;;
28130;SDS011;15418;42.634;23.374;2022-07-29T13:44:39;9.23;;;4.32;;
28130;SDS011;15418;42.634;23.374;2022-07-29T13:47:05;9.40;;;5.60;;
28130;SDS011;15418;42.634;23.374;2022-07-29T13:49:32;6.22;;;5.10;;
28130;SDS011;15418;42.634;23.374;2022-07-29T13:51:58;7.50;;;5.57;;
28130;SDS011;15418;42.634;23.374;2022-07-29T13:54:23;7.85;;;4.82;;
28130;SDS011;15418;42.634;23.374;2022-07-29T13:56:49;6.28;;;4.38;;
28130;SDS011;15418;42.634;23.374;2022-07-29T13:59:15;5.65;;;4.60;;
28130;SDS011;15418;42.634;23.374;2022-07-29T14:01:41;4.93;;;4.43;;
28130;SDS011;15418;42.634;23.374;2022-07-29T14:04:07;6.80;;;4.93;;
28130;SDS011;15418;42.634;23.374;2022-07-29T14:06:33;5.30;;;4.50;;
28130;SDS011;15418;42.634;23.374;2022-07-29T14:08:59;9.05;;;4.65;;
28130;SDS011;15418;42.634;23.374;2022-07-29T14:11:24;7.15;;;4.47;;
28130;SDS011;15418;42.634;23.374;2022-07-29T14:13:50;7.60;;;4.20;;
28130;SDS011;15418;42.634;23.374;2022-07-29T14:16:15;8.73;;;4.75;;
28130;SDS011;15418;42.634;23.374;2022-07-29T14:18:41;11.07;;;5.45;;
28130;SDS011;15418;42.634;23.374;2022-07-29T14:21:06;5.32;;;4.25;;
28130;SDS011;15418;42.634;23.374;2022-07-29T14:23:31;7.10;;;5.30;;
28130;SDS011;15418;42.634;23.374;2022-07-29T14:25:57;7.93;;;5.53;;
28130;SDS011;15418;42.634;23.374;2022-07-29T14:28:22;6.35;;;4.95;;
28130;SDS011;15418;42.634;23.374;2022-07-29T14:30:48;8.05;;;5.57;;
28130;SDS011;15418;42.634;23.374;2022-07-29T14:33:13;6.30;;;4.88;;
28130;SDS011;15418;42.634;23.374;2022-07-29T14:35:39;5.72;;;4.80;;
28130;SDS011;15418;42.634;23.374;2022-07-29T14:38:05;5.95;;;5.00;;
28130;SDS011;15418;42.634;23.374;2022-07-29T14:40:30;7.07;;;5.07;;
28130;SDS011;15418;42.634;23.374;2022-07-29T14:42:56;8.27;;;5.07;;
28130;SDS011;15418;42.634;23.374;2022-07-29T14:45:22;5.68;;;4.43;;
28130;SDS011;15418;42.634;23.374;2022-07-29T14:47:47;6.35;;;5.00;;
28130;SDS011;15418;42.634;23.374;2022-07-29T14:50:15;9.48;;;5.13;;
28130;SDS011;15418;42.634;23.374;2022-07-29T14:52:41;4.88;;;4.35;;
28130;SDS011;15418;42.634;23.374;2022-07-29T14:55:06;7.22;;;5.07;;
28130;SDS011;15418;42.634;23.374;2022-07-29T14:57:32;9.18;;;5.00;;
28130;SDS011;15418;42.634;23.374;2022-07-29T14:59:58;13.40;;;7.90;;
28130;SDS011;15418;42.634;23.374;2022-07-29T15:02:23;5.97;;;4.90;;
28130;SDS011;15418;42.634;23.374;2022-07-29T15:04:49;8.25;;;5.63;;
28130;SDS011;15418;42.634;23.374;2022-07-29T15:07:14;9.02;;;5.65;;
28130;SDS011;15418;42.634;23.374;2022-07-29T15:09:40;6.05;;;5.20;;
28130;SDS011;15418;42.634;23.374;2022-07-29T15:12:06;11.88;;;5.20;;